Time;durP1;ratioP1;P1;durP2;ratioP2;P2;SDS_P1;SDS_P2;PMS_P1;PMS_P2;Temp;Humidity;BMP_temperature;BMP_pressure;BME280_temperature;BME280_humidity;BME280_pressure;Samples;Min_cycle;Max_cycle;Signal;HPM_P1;HPM_P2
2022/06/21 00:00:38;;;;;;;2.83;1.35;;;17.90;99.90;;;;;;4996161;28;20266;-90
2022/06/21 00:03:11;;;;;;;2.10;1.70;;;17.80;99.90;;;;;;4996249;28;20298;-90
2022/06/21 00:05:41;;;;;;;4.27;2.10;;;17.70;99.90;;;;;;4994956;28;20212;-90
2022/06/21 00:08:14;;;;;;;3.83;1.80;;;17.60;99.90;;;;;;4979130;28;20219;-90
2022/06/21 00:10:40;;;;;;;1.80;1.70;;;17.40;99.90;;;;;;4996277;28;20165;-90
2022/06/21 00:13:17;;;;;;;1.77;1.67;;;17.40;99.90;;;;;;4996353;28;20184;-89
2022/06/21 00:15:45;;;;;;;1.70;1.60;;;17.40;99.90;;;;;;4996234;28;20218;-90
2022/06/21 00:18:17;;;;;;;2.90;1.90;;;17.40;99.90;;;;;;4996210;28;20184;-90
2022/06/21 00:20:44;;;;;;;3.63;1.50;;;17.40;99.90;;;;;;4996012;28;20207;-90
2022/06/21 00:23:16;;;;;;;3.30;1.70;;;17.40;99.90;;;;;;4995409;28;20291;-90
2022/06/21 00:25:45;;;;;;;1.50;1.40;;;17.30;99.90;;;;;;4985998;28;20219;-90
2022/06/21 00:28:10;;;;;;;1.67;1.47;;;17.40;99.90;;;;;;4995705;28;20179;-89
2022/06/21 00:30:39;;;;;;;2.43;1.57;;;17.40;99.90;;;;;;4995823;28;20176;-90
2022/06/21 00:33:11;;;;;;;2.00;1.43;;;17.50;99.90;;;;;;4995519;28;20188;-90
2022/06/21 00:35:37;;;;;;;3.03;1.50;;;17.60;99.90;;;;;;4995674;28;20182;-90
2022/06/21 00:38:03;;;;;;;4.13;1.50;;;17.70;99.90;;;;;;4995845;28;20263;-90
2022/06/21 00:40:32;;;;;;;1.73;1.50;;;17.80;99.90;;;;;;4995501;28;20188;-90
2022/06/21 00:43:16;;;;;;;5.20;1.60;;;17.70;99.90;;;;;;4995807;28;20208;-89
2022/06/21 00:45:46;;;;;;;2.00;1.50;;;17.70;99.90;;;;;;4979008;28;20214;-90
2022/06/21 00:48:15;;;;;;;1.95;1.55;;;17.70;99.90;;;;;;4994796;28;20187;-89
2022/06/21 00:50:45;;;;;;;1.67;1.40;;;17.80;99.90;;;;;;4978930;28;20180;-90
2022/06/21 00:53:23;;;;;;;2.60;1.50;;;17.90;99.90;;;;;;4995371;28;20207;-89
2022/06/21 00:56:14;;;;;;;2.00;1.50;;;17.90;99.90;;;;;;4995211;28;20238;-90
2022/06/21 00:58:39;;;;;;;1.97;1.47;;;18.00;99.90;;;;;;4995482;28;20210;-90
2022/06/21 01:01:17;;;;;;;3.20;1.50;;;18.00;99.90;;;;;;4995520;28;20206;-90
2022/06/21 01:03:56;;;;;;;3.92;1.40;;;18.00;99.90;;;;;;4994920;28;20212;-90
2022/06/21 01:06:31;;;;;;;1.95;1.58;;;18.00;99.90;;;;;;4995539;28;20189;-90
2022/06/21 01:09:02;;;;;;;1.92;1.60;;;18.00;99.90;;;;;;4994927;28;20194;-90
2022/06/21 01:11:33;;;;;;;2.58;1.05;;;18.00;99.90;;;;;;4994952;28;20210;-90
2022/06/21 01:14:00;;;;;;;2.22;1.70;;;18.00;99.90;;;;;;4994792;28;20186;-90
2022/06/21 01:16:28;;;;;;;2.25;1.45;;;18.00;99.90;;;;;;4995245;28;20179;-90
2022/06/21 01:18:54;;;;;;;1.70;1.30;;;17.90;99.90;;;;;;4994769;28;20184;-90
2022/06/21 01:21:21;;;;;;;1.30;1.20;;;17.80;99.90;;;;;;4994742;28;20200;-90
2022/06/21 01:24:14;;;;;;;2.27;1.40;;;17.80;99.90;;;;;;4994261;28;20215;-90
2022/06/21 01:26:47;;;;;;;1.48;1.38;;;17.70;99.90;;;;;;4994184;28;20258;-90
2022/06/21 01:29:19;;;;;;;1.53;1.43;;;17.70;99.90;;;;;;4994502;28;20200;-90
2022/06/21 01:31:46;;;;;;;1.97;1.63;;;17.60;99.90;;;;;;4994758;28;20196;-90
2022/06/21 01:34:21;;;;;;;2.07;1.40;;;17.60;99.90;;;;;;4994290;28;20193;-90
2022/06/21 01:36:51;;;;;;;2.50;1.52;;;17.50;99.90;;;;;;4994727;28;20171;-90
2022/06/21 01:39:25;;;;;;;2.23;1.60;;;17.50;99.90;;;;;;4994591;28;20540;-90
2022/06/21 01:42:04;;;;;;;2.43;1.30;;;17.40;99.90;;;;;;4994306;28;20204;-90
2022/06/21 01:44:35;;;;;;;1.93;1.73;;;17.40;99.90;;;;;;4977911;28;20207;-90
2022/06/21 01:47:05;;;;;;;2.07;1.40;;;17.30;99.90;;;;;;4994392;28;20172;-90
2022/06/21 01:49:34;;;;;;;3.00;1.53;;;17.30;99.90;;;;;;4994388;28;20176;-90
2022/06/21 01:52:12;;;;;;;2.10;1.33;;;17.30;99.90;;;;;;4993395;28;20204;-90
2022/06/21 01:54:43;;;;;;;2.87;1.60;;;17.20;99.90;;;;;;4994490;28;20183;-90
2022/06/21 01:57:12;;;;;;;3.60;1.50;;;17.20;99.90;;;;;;4994539;28;20176;-90
2022/06/21 01:59:48;;;;;;;1.83;1.57;;;17.10;99.90;;;;;;4977516;28;20211;-90
2022/06/21 02:02:19;;;;;;;1.67;1.50;;;17.10;99.90;;;;;;4993329;28;20242;-90
2022/06/21 02:05:00;;;;;;;2.20;1.37;;;17.00;99.90;;;;;;4992616;28;20191;-90
2022/06/21 02:07:35;;;;;;;1.67;1.57;;;17.00;99.90;;;;;;4993695;28;20196;-89
2022/06/21 02:10:13;;;;;;;4.03;1.80;;;17.00;99.90;;;;;;4993836;28;20180;-89
2022/06/21 02:12:46;;;;;;;2.53;1.43;;;16.90;99.90;;;;;;4993810;28;20271;-90
2022/06/21 02:15:22;;;;;;;2.23;1.40;;;16.80;99.90;;;;;;4993733;28;20187;-90
2022/06/21 02:17:49;;;;;;;1.57;1.47;;;16.80;99.90;;;;;;4993822;28;20250;-90
2022/06/21 02:20:35;;;;;;;3.33;1.60;;;16.70;99.90;;;;;;4994002;28;20180;-90
2022/06/21 02:23:02;;;;;;;1.77;1.67;;;16.70;99.90;;;;;;4993671;28;20290;-90
2022/06/21 02:25:29;;;;;;;4.03;1.80;;;16.70;99.90;;;;;;4961478;28;20227;-90
2022/06/21 02:28:04;;;;;;;2.57;1.80;;;16.70;99.90;;;;;;4961771;28;20183;-90
2022/06/21 02:30:31;;;;;;;3.20;1.80;;;16.70;99.90;;;;;;4961327;28;20314;-89
2022/06/21 02:33:00;;;;;;;3.03;1.50;;;16.70;99.90;;;;;;4961701;28;20267;-90
2022/06/21 02:35:49;;;;;;;1.87;1.70;;;16.70;99.90;;;;;;4960840;28;20180;-90
2022/06/21 02:38:23;;;;;;;2.07;1.67;;;16.60;99.90;;;;;;4961400;28;20206;-90
2022/06/21 02:40:56;;;;;;;1.77;1.67;;;16.70;99.90;;;;;;4961200;28;20210;-89
2022/06/21 02:43:28;;;;;;;2.67;1.50;;;16.70;99.90;;;;;;4961241;28;20287;-89
2022/06/21 02:46:04;;;;;;;3.17;1.70;;;16.70;99.90;;;;;;4961056;28;20160;-90
2022/06/21 02:48:40;;;;;;;1.90;1.67;;;16.70;99.90;;;;;;4960975;28;20174;-90
2022/06/21 02:51:11;;;;;;;1.70;1.60;;;16.60;99.90;;;;;;4961164;28;20291;-90
2022/06/21 02:54:07;;;;;;;1.70;1.60;;;16.60;99.90;;;;;;4960945;28;20180;-90
2022/06/21 02:56:41;;;;;;;1.87;1.60;;;16.50;99.90;;;;;;4961176;28;20200;-90
2022/06/21 02:59:09;;;;;;;2.03;1.57;;;16.60;99.90;;;;;;4993193;28;20184;-90
2022/06/21 03:01:50;;;;;;;2.50;1.50;;;16.60;99.90;;;;;;4992911;28;20200;-90
2022/06/21 03:04:42;;;;;;;1.83;1.47;;;16.60;99.90;;;;;;4992899;28;20199;-90
2022/06/21 03:07:14;;;;;;;2.20;1.60;;;16.60;99.90;;;;;;4993049;28;20187;-89
2022/06/21 03:09:42;;;;;;;1.80;1.70;;;16.50;99.90;;;;;;4993756;28;20207;-90
2022/06/21 03:12:09;;;;;;;1.97;1.60;;;16.40;99.90;;;;;;4992756;28;20223;-90
2022/06/21 03:14:37;;;;;;;1.60;1.50;;;16.40;99.90;;;;;;4976693;28;20188;-90
2022/06/21 03:17:08;;;;;;;2.40;1.73;;;16.40;99.90;;;;;;4993549;28;20199;-90
2022/06/21 03:19:43;;;;;;;2.27;1.40;;;16.40;99.90;;;;;;4993461;28;20187;-90
2022/06/21 03:22:29;;;;;;;1.93;1.77;;;16.30;99.90;;;;;;4994701;28;20279;-90
2022/06/21 03:24:59;;;;;;;1.50;1.40;;;16.30;99.90;;;;;;4991229;28;20191;-90
2022/06/21 03:27:48;;;;;;;3.47;1.40;;;16.40;99.90;;;;;;4960108;28;20183;-89
2022/06/21 03:30:16;;;;;;;2.43;1.80;;;16.40;99.90;;;;;;4976375;28;20218;-90
2022/06/21 03:32:43;;;;;;;2.97;1.63;;;16.30;99.90;;;;;;4960019;28;20211;-89
2022/06/21 03:35:14;;;;;;;2.33;1.70;;;16.30;99.90;;;;;;4959660;28;20195;-90
2022/06/21 03:37:44;;;;;;;1.60;1.50;;;16.30;99.90;;;;;;4992480;28;20255;-90
2022/06/21 03:43:20;;;;;;;3.37;1.67;;;16.20;99.90;;;;;;4992023;28;20211;-89
2022/06/21 03:45:48;;;;;;;3.50;1.80;;;16.20;99.90;;;;;;4959885;28;20207;-90
2022/06/21 03:48:21;;;;;;;1.80;1.60;;;16.20;99.90;;;;;;4959871;28;20179;-89
2022/06/21 03:50:56;;;;;;;2.40;1.63;;;16.20;99.90;;;;;;4992141;28;20183;-90
2022/06/21 03:53:35;;;;;;;2.43;1.93;;;16.20;99.90;;;;;;4960168;28;20173;-89
2022/06/21 03:56:05;;;;;;;1.80;1.70;;;16.30;99.90;;;;;;4959627;28;20180;-89
2022/06/21 03:58:46;;;;;;;1.70;1.60;;;16.30;99.90;;;;;;4960099;28;20180;-90
2022/06/21 04:01:50;;;;;;;3.60;1.67;;;16.30;99.90;;;;;;4975697;28;20210;-92
2022/06/21 04:04:19;;;;;;;1.80;1.50;;;16.30;99.90;;;;;;4976380;28;20207;-89
2022/06/21 04:06:52;;;;;;;3.10;1.60;;;16.40;99.90;;;;;;4976306;28;20199;-85
2022/06/21 04:09:28;;;;;;;2.20;1.80;;;16.40;99.90;;;;;;4976114;28;20181;-89
2022/06/21 04:11:57;;;;;;;2.63;1.70;;;16.50;99.90;;;;;;4960271;28;20204;-89
2022/06/21 04:14:29;;;;;;;2.47;1.53;;;16.40;99.90;;;;;;4976088;28;20188;-89
2022/06/21 04:17:33;;;;;;;1.93;1.60;;;16.40;99.90;;;;;;4960325;28;20176;-89
2022/06/21 04:20:30;;;;;;;2.90;1.40;;;16.50;99.90;;;;;;4959299;28;20196;-89
2022/06/21 04:23:08;;;;;;;2.70;1.50;;;16.60;99.90;;;;;;4975972;28;20235;-90
2022/06/21 04:26:04;;;;;;;2.00;1.30;;;16.60;99.90;;;;;;4963200;28;20241;-89
2022/06/21 04:28:42;;;;;;;1.63;1.53;;;16.70;99.90;;;;;;4995816;28;20190;-90
2022/06/21 04:31:12;;;;;;;1.60;1.50;;;16.70;99.90;;;;;;4996034;28;20196;-89
2022/06/21 04:33:56;;;;;;;1.80;1.70;;;16.70;99.90;;;;;;4979496;28;20171;-89
2022/06/21 04:36:29;;;;;;;1.80;1.70;;;16.70;99.90;;;;;;4996227;28;20187;-89
2022/06/21 04:39:21;;;;;;;2.50;1.90;;;16.70;99.90;;;;;;5015786;28;20189;-89
2022/06/21 04:42:06;;;;;;;3.60;1.80;;;16.70;99.90;;;;;;4994972;28;20200;-89
2022/06/21 04:44:46;;;;;;;2.30;2.00;;;16.80;99.90;;;;;;4994297;28;20215;-89
2022/06/21 04:47:38;;;;;;;3.23;1.90;;;16.90;99.90;;;;;;4995693;28;20191;-90
2022/06/21 04:50:17;;;;;;;1.97;1.70;;;16.90;99.90;;;;;;4978882;28;20197;-89
2022/06/21 04:53:15;;;;;;;3.23;1.77;;;16.90;99.90;;;;;;4980609;28;20349;-89
2022/06/21 04:56:03;;;;;;;1.67;1.57;;;17.00;99.90;;;;;;4980451;28;20234;-89
2022/06/21 04:58:31;;;;;;;1.90;1.70;;;17.00;99.90;;;;;;4979014;28;20183;-89
2022/06/21 05:03:52;;;;;;;2.00;1.80;;;17.10;99.90;;;;;;4994569;28;20216;-89
2022/06/21 05:06:18;;;;;;;4.70;1.77;;;17.20;99.90;;;;;;4961598;28;20207;-89
2022/06/21 05:08:47;;;;;;;2.87;2.13;;;17.20;99.90;;;;;;5011576;28;20187;-90
2022/06/21 05:11:14;;;;;;;2.70;1.50;;;17.20;99.90;;;;;;5009973;28;20227;-90
2022/06/21 05:13:50;;;;;;;1.80;1.70;;;17.10;99.90;;;;;;5008262;28;20275;-90
2022/06/21 05:16:24;;;;;;;2.53;1.80;;;17.00;99.90;;;;;;5009781;28;20179;-90
2022/06/21 05:19:02;;;;;;;2.27;1.53;;;17.10;99.90;;;;;;5009731;28;20171;-90
2022/06/21 05:21:43;;;;;;;2.47;1.60;;;17.00;99.90;;;;;;4992682;28;20204;-90
2022/06/21 05:24:10;;;;;;;2.00;1.80;;;17.00;99.90;;;;;;4992549;28;20208;-90
2022/06/21 05:26:48;;;;;;;2.97;1.90;;;16.90;99.90;;;;;;4960137;28;20191;-89
2022/06/21 05:29:28;;;;;;;2.10;1.90;;;17.00;99.90;;;;;;4997279;28;20163;-89
2022/06/21 05:31:59;;;;;;;3.30;1.87;;;16.90;99.90;;;;;;4992428;28;20230;-89
2022/06/21 05:34:30;;;;;;;2.43;1.80;;;16.80;99.90;;;;;;4991970;28;20184;-89
2022/06/21 05:37:05;;;;;;;3.00;1.70;;;16.90;99.90;;;;;;4959796;28;20209;-89
2022/06/21 05:39:40;;;;;;;2.73;1.70;;;17.00;99.90;;;;;;4975823;28;20220;-89
2022/06/21 05:42:11;;;;;;;3.27;2.17;;;17.00;99.90;;;;;;4976073;28;20302;-89
2022/06/21 05:44:49;;;;;;;2.87;2.00;;;17.00;99.90;;;;;;4977208;28;20218;-89
2022/06/21 05:47:28;;;;;;;3.23;1.73;;;17.10;99.90;;;;;;4993610;28;20172;-91
2022/06/21 05:49:57;;;;;;;1.97;1.80;;;17.20;99.90;;;;;;4976035;28;20187;-90
2022/06/21 05:52:40;;;;;;;2.90;1.70;;;17.20;99.90;;;;;;4977257;28;20207;-89
2022/06/21 05:55:18;;;;;;;2.60;1.80;;;17.40;99.90;;;;;;4991748;28;20334;-90
2022/06/21 05:57:57;;;;;;;2.53;1.97;;;17.60;99.90;;;;;;4991971;28;20334;-90
2022/06/21 06:00:50;;;;;;;2.90;1.93;;;17.60;99.90;;;;;;4974973;28;20218;-90
2022/06/21 06:03:27;;;;;;;3.63;2.10;;;17.80;99.90;;;;;;4991854;28;20213;-90
2022/06/21 06:05:56;;;;;;;3.63;2.30;;;17.80;99.90;;;;;;4991228;28;20185;-90
2022/06/21 06:08:29;;;;;;;5.18;2.30;;;18.00;99.90;;;;;;4991219;28;20202;-90
2022/06/21 06:11:01;;;;;;;2.93;2.00;;;18.20;99.90;;;;;;4991714;28;20200;-90
2022/06/21 06:13:37;;;;;;;3.78;2.03;;;18.30;99.90;;;;;;4991585;28;20203;-90
2022/06/21 06:16:28;;;;;;;2.45;2.00;;;18.40;99.90;;;;;;4961289;28;20187;-90
2022/06/21 06:19:25;;;;;;;2.58;2.25;;;18.40;99.90;;;;;;4979410;28;20196;-89
2022/06/21 06:22:05;;;;;;;2.88;2.00;;;18.50;99.90;;;;;;4939739;28;20220;-90
2022/06/21 06:24:40;;;;;;;4.20;2.00;;;18.50;99.90;;;;;;4992510;28;20219;-90
2022/06/21 06:27:22;;;;;;;2.03;1.90;;;18.60;99.90;;;;;;4961737;28;20180;-91
2022/06/21 06:29:51;;;;;;;2.67;2.10;;;18.70;99.90;;;;;;4979781;28;20254;-91
2022/06/21 06:32:22;;;;;;;1.63;1.52;;;18.60;99.90;;;;;;4959019;28;20234;-90
2022/06/21 06:34:52;;;;;;;1.92;1.70;;;18.70;99.90;;;;;;4958091;28;20180;-90
2022/06/21 06:37:30;;;;;;;3.95;2.10;;;18.80;99.90;;;;;;4958874;28;20187;-90
2022/06/21 06:39:58;;;;;;;3.58;1.92;;;19.10;99.90;;;;;;4958638;28;20176;-90
2022/06/21 06:42:31;;;;;;;2.95;2.20;;;19.40;99.90;;;;;;4958830;28;20688;-90
2022/06/21 06:45:06;;;;;;;3.28;1.98;;;19.70;99.90;;;;;;4958776;28;20191;-91
2022/06/21 06:47:37;;;;;;;3.97;2.22;;;19.80;99.90;;;;;;4974207;28;20175;-90
2022/06/21 06:50:22;;;;;;;2.47;2.10;;;20.10;99.90;;;;;;4958673;28;20191;-92
2022/06/21 06:52:54;;;;;;;2.30;2.03;;;20.20;99.90;;;;;;4958802;28;20192;-90
2022/06/21 06:55:45;;;;;;;3.55;2.05;;;20.40;99.90;;;;;;4958619;28;20210;-90
2022/06/21 06:58:28;;;;;;;3.58;1.90;;;20.60;99.90;;;;;;4958554;28;20180;-90
2022/06/21 07:00:58;;;;;;;3.25;2.00;;;20.90;99.90;;;;;;4974523;28;20246;-91
2022/06/21 07:03:38;;;;;;;2.45;2.08;;;21.00;99.90;;;;;;4958957;28;20204;-90
2022/06/21 07:06:17;;;;;;;4.05;2.13;;;20.90;99.90;;;;;;4959103;28;20246;-90
2022/06/21 07:08:49;;;;;;;2.47;2.28;;;20.90;99.90;;;;;;4975161;28;20191;-91
2022/06/21 07:11:36;;;;;;;3.70;2.60;;;20.90;99.90;;;;;;4975536;28;20200;-90
2022/06/21 07:14:02;;;;;;;3.20;2.30;;;20.90;99.90;;;;;;4975711;28;20283;-90
2022/06/21 07:16:30;;;;;;;3.78;2.25;;;21.00;99.90;;;;;;4959947;28;20183;-90
2022/06/21 07:19:00;;;;;;;3.00;2.33;;;21.00;99.90;;;;;;4959725;28;20192;-91
2022/06/21 07:21:26;;;;;;;5.35;2.60;;;20.90;99.90;;;;;;4958279;28;20227;-91
2022/06/21 07:23:53;;;;;;;3.22;2.70;;;20.90;99.90;;;;;;4958318;28;20231;-91
2022/06/21 07:26:34;;;;;;;3.95;2.50;;;20.80;99.90;;;;;;4958251;28;20283;-90
2022/06/21 07:29:23;;;;;;;2.60;2.40;;;20.80;99.90;;;;;;4958007;28;20203;-90
2022/06/21 07:31:55;;;;;;;3.30;2.75;;;20.90;99.90;;;;;;4974066;28;20219;-90
2022/06/21 07:34:44;;;;;;;2.50;2.30;;;20.90;99.90;;;;;;4974075;28;20274;-90
2022/06/21 07:37:16;;;;;;;3.88;2.92;;;20.90;99.90;;;;;;4973839;28;20195;-90
2022/06/21 07:39:51;;;;;;;3.13;2.83;;;21.00;99.90;;;;;;4957968;28;20303;-90
2022/06/21 07:42:24;;;;;;;3.03;2.72;;;21.30;99.90;;;;;;4959917;28;20210;-91
2022/06/21 07:45:05;;;;;;;3.47;2.47;;;21.60;99.90;;;;;;4991016;28;20230;-90
2022/06/21 07:47:48;;;;;;;2.90;2.17;;;21.80;99.90;;;;;;4957882;28;20195;-90
2022/06/21 07:50:19;;;;;;;2.50;2.08;;;22.00;99.90;;;;;;4957253;28;20325;-90
2022/06/21 07:52:51;;;;;;;3.53;2.10;;;22.20;99.90;;;;;;4957848;28;20216;-90
2022/06/21 07:55:33;;;;;;;2.80;1.90;;;22.30;99.90;;;;;;4957690;28;20273;-90
2022/06/21 07:58:10;;;;;;;3.05;2.15;;;22.60;99.90;;;;;;4957826;28;20188;-91
2022/06/21 08:09:21;;;;;;;3.45;2.00;;;22.60;99.90;;;;;;4993625;28;20196;-90
2022/06/21 08:11:49;;;;;;;2.88;2.05;;;22.50;99.90;;;;;;4977408;28;20195;-90
2022/06/21 08:14:18;;;;;;;6.38;4.75;;;22.40;99.90;;;;;;4961485;28;20188;-90
2022/06/21 08:17:24;;;;;;;3.05;1.70;;;22.40;99.90;;;;;;4961085;28;20195;-90
2022/06/21 08:20:29;;;;;;;2.72;1.92;;;22.30;99.90;;;;;;4935028;28;20195;-90
2022/06/21 08:23:01;;;;;;;4.05;2.00;;;22.40;99.90;;;;;;4961347;28;20242;-90
2022/06/21 08:25:41;;;;;;;3.63;2.10;;;22.40;99.90;;;;;;4977103;28;20198;-90
2022/06/21 08:28:42;;;;;;;4.28;2.17;;;22.40;99.90;;;;;;4993539;28;20183;-90
2022/06/21 08:31:13;;;;;;;3.22;2.10;;;22.40;99.90;;;;;;4956208;28;20214;-90
2022/06/21 08:33:52;;;;;;;3.65;1.98;;;22.20;99.90;;;;;;4993402;28;20211;-90
2022/06/21 08:36:28;;;;;;;3.63;2.28;;;22.20;99.90;;;;;;4977431;28;20191;-91
2022/06/21 08:39:15;;;;;;;2.38;2.15;;;22.20;99.90;;;;;;4993109;28;20256;-90
2022/06/21 08:41:53;;;;;;;3.35;2.10;;;22.10;99.90;;;;;;4993351;28;20191;-90
2022/06/21 08:44:47;;;;;;;2.35;2.10;;;22.10;99.90;;;;;;4976836;28;20215;-91
2022/06/21 08:47:38;;;;;;;2.50;2.13;;;22.20;99.90;;;;;;4976922;28;20292;-90
2022/06/21 08:50:16;;;;;;;1.83;1.67;;;22.30;99.90;;;;;;4992644;28;20180;-91
2022/06/21 08:53:18;;;;;;;2.42;2.03;;;22.50;99.90;;;;;;4977009;28;20200;-90
2022/06/21 08:55:46;;;;;;;2.67;1.90;;;22.80;99.90;;;;;;4936824;29;20192;-90
2022/06/21 08:58:47;;;;;;;4.05;2.15;;;23.10;99.90;;;;;;4985444;28;20235;-90
2022/06/21 09:01:29;;;;;;;4.00;2.40;;;23.30;99.90;;;;;;4993004;28;20200;-90
2022/06/21 09:04:17;;;;;;;1.88;1.70;;;23.60;99.90;;;;;;4976605;28;20226;-90
2022/06/21 09:06:43;;;;;;;3.33;2.00;;;23.70;99.90;;;;;;4976703;28;20180;-91
2022/06/21 09:09:32;;;;;;;2.97;2.17;;;23.90;99.90;;;;;;4976084;28;20194;-91
2022/06/21 09:12:17;;;;;;;3.30;2.30;;;24.00;99.90;;;;;;4976716;28;20254;-90
2022/06/21 09:15:01;;;;;;;2.65;2.08;;;24.00;99.90;;;;;;4976435;28;20191;-90
2022/06/21 09:17:31;;;;;;;3.88;2.38;;;24.30;99.90;;;;;;4992565;28;20727;-90
2022/06/21 09:20:20;;;;;;;2.90;2.10;;;24.50;99.90;;;;;;4976255;28;20312;-90
2022/06/21 09:22:59;;;;;;;4.13;2.10;;;24.60;99.90;;;;;;4992552;28;20206;-90
2022/06/21 09:25:29;;;;;;;2.28;2.08;;;24.80;99.90;;;;;;4976108;28;20199;-90
2022/06/21 09:28:24;;;;;;;2.65;2.20;;;25.00;99.90;;;;;;4976427;28;20234;-90
2022/06/21 09:31:05;;;;;;;2.60;2.10;;;24.70;99.90;;;;;;4988995;28;20215;-90
2022/06/21 09:33:49;;;;;;;3.30;2.13;;;24.70;99.90;;;;;;4992377;28;20188;-90
2022/06/21 09:36:32;;;;;;;2.22;1.92;;;24.70;99.90;;;;;;4992755;28;20180;-90
2022/06/21 09:39:07;;;;;;;2.75;2.35;;;24.90;99.90;;;;;;4992064;28;20191;-90
2022/06/21 09:41:53;;;;;;;4.47;2.15;;;24.70;99.90;;;;;;4976114;28;20207;-90
2022/06/21 09:44:27;;;;;;;4.15;2.10;;;24.80;99.90;;;;;;4975620;28;20226;-90
2022/06/21 09:47:18;;;;;;;3.33;1.90;;;25.00;99.90;;;;;;4992362;28;20182;-90
2022/06/21 09:49:50;;;;;;;3.75;2.25;;;25.30;99.90;;;;;;4991705;28;20176;-90
2022/06/21 09:52:47;;;;;;;2.38;2.00;;;25.30;99.90;;;;;;4975772;28;20204;-90
2022/06/21 09:55:35;;;;;;;3.05;1.90;;;25.40;99.90;;;;;;4975627;28;20282;-90
2022/06/21 09:58:26;;;;;;;2.67;2.20;;;25.70;99.90;;;;;;4991755;28;20178;-91
2022/06/21 10:01:10;;;;;;;3.80;2.55;;;25.80;99.90;;;;;;4991516;28;20207;-90
2022/06/21 10:04:04;;;;;;;4.63;2.33;;;25.60;99.90;;;;;;4975515;28;20234;-91
2022/06/21 10:06:35;;;;;;;4.03;2.65;;;25.40;99.90;;;;;;4991944;28;20184;-90
2022/06/21 10:09:33;;;;;;;3.25;2.25;;;25.70;99.90;;;;;;4975416;28;20191;-91
2022/06/21 10:12:17;;;;;;;4.20;2.50;;;26.00;99.90;;;;;;4975489;28;20228;-91
2022/06/21 10:15:21;;;;;;;3.13;2.03;;;26.30;99.90;;;;;;4991308;28;20180;-90
2022/06/21 10:18:14;;;;;;;4.03;2.17;;;26.50;99.90;;;;;;4975232;28;20179;-90
2022/06/21 10:20:52;;;;;;;3.85;2.22;;;26.80;99.90;;;;;;4975321;28;20215;-90
2022/06/21 10:23:27;;;;;;;3.15;2.20;;;26.70;99.90;;;;;;4974999;28;20207;-90
2022/06/21 10:26:08;;;;;;;1.98;1.67;;;26.60;99.90;;;;;;4975174;28;20188;-90
2022/06/21 10:28:49;;;;;;;2.20;2.00;;;26.70;99.90;;;;;;4975372;28;20251;-91
2022/06/21 10:31:33;;;;;;;3.20;2.50;;;26.90;99.90;;;;;;4974959;28;20231;-91
2022/06/21 10:34:15;;;;;;;2.53;1.90;;;26.90;99.30;;;;;;4975083;28;20184;-91
2022/06/21 10:37:02;;;;;;;3.42;1.90;;;27.00;99.60;;;;;;4991430;28;20208;-90
2022/06/21 10:39:50;;;;;;;3.38;2.33;;;27.30;99.50;;;;;;4974729;28;20180;-90
2022/06/21 10:42:49;;;;;;;3.13;2.30;;;27.50;99.00;;;;;;4975086;28;20298;-90
2022/06/21 10:45:46;;;;;;;2.92;2.08;;;27.70;98.70;;;;;;4990636;28;20199;-91
2022/06/21 10:48:17;;;;;;;6.65;2.35;;;28.10;99.70;;;;;;4975102;28;20180;-91
2022/06/21 10:51:14;;;;;;;3.95;2.35;;;28.40;99.10;;;;;;4975233;28;20184;-91
2022/06/21 10:54:13;;;;;;;2.72;2.42;;;28.30;98.80;;;;;;4992063;28;20229;-90
2022/06/21 11:02:57;;;;;;;3.28;2.60;;;27.30;99.00;;;;;;4976212;28;20318;-90
2022/06/21 11:05:29;;;;;;;4.57;2.30;;;27.20;99.50;;;;;;4992048;28;20180;-91
2022/06/21 11:08:29;;;;;;;4.03;2.67;;;27.40;99.90;;;;;;4974673;28;20200;-91
2022/06/21 11:11:16;;;;;;;3.97;2.65;;;27.50;99.40;;;;;;4974486;28;20223;-91
2022/06/21 11:13:52;;;;;;;3.75;2.70;;;27.40;99.60;;;;;;4974419;28;20640;-90
2022/06/21 11:16:25;;;;;;;3.92;2.80;;;27.50;99.60;;;;;;4974658;28;20187;-90
2022/06/21 11:19:07;;;;;;;2.90;2.58;;;27.80;99.50;;;;;;4989465;28;20195;-82
2022/06/21 11:21:48;;;;;;;3.80;2.55;;;28.00;99.80;;;;;;4972594;28;20319;-81
2022/06/21 11:24:32;;;;;;;5.22;2.70;;;28.10;99.90;;;;;;4973188;28;20204;-90
2022/06/21 11:27:18;;;;;;;5.28;3.10;;;28.50;99.50;;;;;;4976689;28;20254;-91
2022/06/21 11:30:00;;;;;;;3.58;2.60;;;28.90;98.70;;;;;;4992952;28;20199;-91
2022/06/21 11:33:00;;;;;;;4.15;2.80;;;28.90;97.90;;;;;;4993577;28;20207;-91
2022/06/21 11:35:49;;;;;;;3.85;2.80;;;28.70;97.40;;;;;;4974733;28;20171;-91
2022/06/21 11:38:53;;;;;;;3.13;2.88;;;28.70;99.00;;;;;;4978110;28;20175;-91
2022/06/21 11:44:46;;;;;;;3.80;2.70;;;29.00;98.50;;;;;;4970884;28;20219;-91
2022/06/21 11:47:30;;;;;;;4.10;2.95;;;28.90;98.80;;;;;;4976099;28;20210;-91
2022/06/21 11:50:20;;;;;;;3.70;2.60;;;28.40;99.00;;;;;;4975937;28;20176;-91
2022/06/21 11:53:24;;;;;;;3.85;3.20;;;28.30;99.10;;;;;;4992145;28;20290;-91
2022/06/21 11:56:44;;;;;;;4.75;2.80;;;28.10;99.10;;;;;;4975543;28;20266;-92
2022/06/21 11:59:19;;;;;;;4.25;2.70;;;28.40;99.60;;;;;;4976706;28;20165;-91
2022/06/21 12:02:00;;;;;;;3.50;3.20;;;28.90;99.90;;;;;;4992734;28;20210;-91
2022/06/21 12:04:43;;;;;;;3.90;2.70;;;29.10;98.60;;;;;;4993116;28;20207;-91
2022/06/21 12:07:21;;;;;;;3.00;2.70;;;28.90;99.20;;;;;;4992047;28;20184;-89
2022/06/21 12:09:56;;;;;;;3.30;2.60;;;29.10;98.90;;;;;;4993669;28;20180;-86
2022/06/21 12:12:40;;;;;;;4.88;3.00;;;29.40;99.00;;;;;;4991618;28;20215;-91
2022/06/21 12:15:45;;;;;;;3.45;2.75;;;29.60;99.30;;;;;;4982384;28;20177;-91
2022/06/21 12:18:16;;;;;;;4.70;2.70;;;29.70;99.20;;;;;;4981265;28;20265;-91
2022/06/21 12:21:09;;;;;;;4.00;2.95;;;29.80;98.10;;;;;;4975080;28;20180;-91
2022/06/21 12:24:02;;;;;;;3.50;3.20;;;29.60;98.20;;;;;;4976052;28;20208;-91
2022/06/21 12:26:32;;;;;;;5.35;3.00;;;29.40;98.30;;;;;;4971770;28;20184;-91
2022/06/21 12:28:59;;;;;;;3.30;3.00;;;29.20;98.70;;;;;;4976374;28;20176;-91
2022/06/21 12:31:33;;;;;;;4.28;3.15;;;29.00;99.00;;;;;;4972599;28;20212;-91
2022/06/21 12:34:15;;;;;;;3.38;3.08;;;29.10;99.50;;;;;;4973976;28;20175;-91
2022/06/21 12:37:00;;;;;;;4.93;3.20;;;29.20;99.10;;;;;;4960178;28;20172;-90
2022/06/21 12:39:40;;;;;;;3.78;2.95;;;29.50;99.50;;;;;;4959556;28;20176;-91
2022/06/21 12:42:17;;;;;;;6.53;3.30;;;29.80;98.80;;;;;;4949152;28;20295;-91
2022/06/21 12:45:29;;;;;;;4.55;3.28;;;30.00;98.80;;;;;;4973047;28;20264;-91
2022/06/21 12:48:04;;;;;;;4.82;3.15;;;30.30;98.50;;;;;;4912708;28;20188;-90
2022/06/21 12:50:42;;;;;;;4.50;3.13;;;30.70;98.20;;;;;;4975878;28;20179;-91
2022/06/21 12:53:23;;;;;;;3.85;3.30;;;30.50;98.40;;;;;;4959745;28;20257;-91
2022/06/21 12:55:58;;;;;;;4.18;3.38;;;30.60;98.40;;;;;;4979136;28;20195;-91
2022/06/21 12:58:55;;;;;;;3.63;3.33;;;30.60;98.70;;;;;;4979169;28;20175;-91
2022/06/21 13:01:51;;;;;;;3.88;3.35;;;30.70;98.70;;;;;;4979142;28;20200;-91
2022/06/21 13:04:26;;;;;;;3.47;3.15;;;30.70;98.10;;;;;;4994884;28;20200;-91
2022/06/21 13:07:18;;;;;;;6.18;3.70;;;30.90;98.70;;;;;;4978796;28;20184;-91
2022/06/21 13:09:53;;;;;;;3.80;3.45;;;30.80;98.10;;;;;;4994947;28;20199;-91
2022/06/21 13:12:36;;;;;;;5.95;3.60;;;30.80;98.00;;;;;;4994762;28;20199;-91
2022/06/21 13:15:23;;;;;;;7.72;3.45;;;30.60;98.30;;;;;;5010938;28;20259;-92
2022/06/21 13:18:23;;;;;;;4.65;3.60;;;30.90;98.40;;;;;;4995292;28;20195;-91
2022/06/21 13:21:26;;;;;;;4.47;4.03;;;31.00;97.80;;;;;;4997853;28;20176;-91
2022/06/21 13:24:22;;;;;;;5.57;3.50;;;31.10;97.90;;;;;;4993771;28;20216;-92
2022/06/21 13:27:21;;;;;;;4.63;3.55;;;31.20;98.20;;;;;;4997542;28;20172;-91
2022/06/21 13:37:39;;;;;;;4.68;3.80;;;32.00;97.60;;;;;;5002085;28;20180;-91
2022/06/21 13:40:43;;;;;;;5.13;3.40;;;32.30;97.20;;;;;;5001345;28;20172;-92
2022/06/21 13:43:34;;;;;;;4.72;3.97;;;32.60;97.00;;;;;;4977385;28;20208;-92
2022/06/21 13:46:28;;;;;;;6.18;3.90;;;32.50;96.30;;;;;;5001527;28;20207;-92
2022/06/21 13:49:36;;;;;;;5.10;3.70;;;32.30;96.30;;;;;;4989290;28;20198;-91
2022/06/21 13:56:15;;;;;;;3.90;3.60;;;31.80;96.70;;;;;;4999940;28;20628;-91
2022/06/21 13:58:45;;;;;;;5.15;3.60;;;31.90;97.30;;;;;;4960165;28;20263;-92
2022/06/21 14:01:35;;;;;;;4.07;3.50;;;31.80;97.00;;;;;;4984200;28;20219;-91
2022/06/21 14:04:43;;;;;;;6.25;3.58;;;32.00;97.00;;;;;;4999808;28;20235;-91
2022/06/21 14:07:26;;;;;;;4.03;3.63;;;32.10;97.40;;;;;;4985859;28;20184;-91
2022/06/21 14:10:22;;;;;;;4.30;3.80;;;32.30;96.60;;;;;;4993181;28;20187;-91
2022/06/21 14:13:25;;;;;;;4.68;3.38;;;32.50;96.90;;;;;;4991822;28;20242;-91
2022/06/21 14:16:27;;;;;;;3.88;3.50;;;32.80;96.30;;;;;;4974620;28;20199;-92
2022/06/21 14:19:19;;;;;;;6.75;4.00;;;33.00;95.70;;;;;;5001401;28;20182;-91
2022/06/21 14:22:32;;;;;;;5.93;3.75;;;33.30;95.70;;;;;;4991655;28;20211;-91
2022/06/21 14:25:27;;;;;;;5.85;3.58;;;33.00;95.40;;;;;;4991385;28;20228;-91
2022/06/21 14:28:05;;;;;;;4.03;3.63;;;32.70;95.40;;;;;;4992323;28;20164;-91